createdAt,value
2023-05-09T00:00:49.890Z,42.08
2023-05-09T00:03:16.796Z,42.00
2023-05-09T00:05:43.918Z,42.24
2023-05-09T00:08:11.108Z,42.22
2023-05-09T00:10:38.022Z,42.01
2023-05-09T00:13:05.011Z,42.20
2023-05-09T00:15:31.991Z,42.09
2023-05-09T00:17:59.406Z,42.37
2023-05-09T00:20:26.429Z,42.20
2023-05-09T00:22:53.370Z,42.51
2023-05-09T00:25:20.360Z,42.49
2023-05-09T00:27:47.298Z,42.65
2023-05-09T00:30:14.257Z,42.44
2023-05-09T00:32:41.701Z,42.49
2023-05-09T00:35:11.755Z,42.51
2023-05-09T00:37:38.792Z,42.64
2023-05-09T00:40:07.556Z,42.68
2023-05-09T00:42:35.357Z,42.67
2023-05-09T00:45:02.679Z,42.76
2023-05-09T00:47:29.727Z,42.80
2023-05-09T00:49:58.440Z,42.75
2023-05-09T00:52:26.603Z,42.98
2023-05-09T00:54:55.513Z,43.00
2023-05-09T00:57:22.987Z,42.81
2023-05-09T00:59:50.239Z,43.01
2023-05-09T01:02:18.189Z,43.31
2023-05-09T01:04:46.541Z,43.16
2023-05-09T01:07:34.970Z,43.02
2023-05-09T01:10:26.512Z,43.16
2023-05-09T01:13:28.854Z,43.17
2023-05-09T01:16:09.158Z,43.29
2023-05-09T01:19:00.875Z,43.15
2023-05-09T01:21:30.503Z,43.21
2023-05-09T01:24:27.111Z,43.43
2023-05-09T01:27:22.620Z,43.58
2023-05-09T01:29:57.213Z,43.79
2023-05-09T01:32:27.482Z,43.69
2023-05-09T01:35:04.463Z,43.83
2023-05-09T01:37:34.124Z,43.63
2023-05-09T01:40:08.318Z,43.74
2023-05-09T01:42:43.909Z,43.62
2023-05-09T01:45:12.749Z,43.60
2023-05-09T01:47:40.943Z,43.88
2023-05-09T01:50:11.593Z,43.67
2023-05-09T01:52:40.483Z,43.65
2023-05-09T01:55:08.937Z,43.71
2023-05-09T01:57:37.431Z,43.78
2023-05-09T02:00:07.924Z,43.88
2023-05-09T02:02:40.757Z,44.03
2023-05-09T02:05:11.249Z,44.09
2023-05-09T02:07:41.238Z,44.26
2023-05-09T02:10:10.071Z,44.57
2023-05-09T02:12:38.262Z,44.76
2023-05-09T02:15:06.735Z,44.75
2023-05-09T02:17:33.919Z,45.01
2023-05-09T02:20:00.923Z,45.10
2023-05-09T02:22:28.172Z,44.69
2023-05-09T02:24:55.306Z,44.60
2023-05-09T02:27:22.511Z,44.85
2023-05-09T02:29:54.053Z,45.12
2023-05-09T02:32:25.757Z,44.92
2023-05-09T02:34:54.172Z,44.97
2023-05-09T02:37:22.060Z,44.88
2023-05-09T02:39:48.947Z,44.92
2023-05-09T02:42:22.671Z,45.23
2023-05-09T02:44:49.558Z,45.19
2023-05-09T02:47:16.454Z,45.33
2023-05-09T02:49:43.322Z,45.24
2023-05-09T02:52:11.022Z,45.14
2023-05-09T02:54:38.631Z,45.05
2023-05-09T02:57:05.962Z,44.89
2023-05-09T02:59:33.484Z,45.26
2023-05-09T03:02:02.485Z,45.03
2023-05-09T03:04:30.495Z,45.19
2023-05-09T03:06:57.425Z,45.30
2023-05-09T03:09:28.166Z,45.25
2023-05-09T03:11:56.498Z,44.91
2023-05-09T03:14:23.432Z,45.00
2023-05-09T03:16:50.363Z,45.34
2023-05-09T03:19:25.680Z,45.34
2023-05-09T03:21:52.654Z,45.56
2023-05-09T03:24:20.297Z,45.32
2023-05-09T03:26:47.974Z,45.19
2023-05-09T03:29:14.898Z,45.45
2023-05-09T03:31:41.832Z,45.05
2023-05-09T03:34:14.843Z,45.31
2023-05-09T03:36:43.755Z,45.25
2023-05-09T03:39:12.851Z,44.96
2023-05-09T03:41:43.593Z,44.86
2023-05-09T03:44:10.943Z,45.05
2023-05-09T03:46:37.949Z,44.99
2023-05-09T03:49:05.431Z,45.04
2023-05-09T03:51:32.773Z,44.38
2023-05-09T03:54:01.920Z,44.49
2023-05-09T03:56:29.493Z,44.12
2023-05-09T03:58:56.481Z,44.39
2023-05-09T04:01:25.386Z,44.43
2023-05-09T04:03:52.829Z,44.60
2023-05-09T04:06:21.365Z,44.26
2023-05-09T04:08:48.570Z,44.00
2023-05-09T04:11:15.558Z,43.52
2023-05-09T04:13:45.896Z,42.72
2023-05-09T04:16:23.529Z,42.49
2023-05-09T04:18:50.498Z,42.11
2023-05-09T04:21:17.405Z,41.47
2023-05-09T04:23:47.939Z,41.10
2023-05-09T04:26:17.973Z,41.12
2023-05-09T04:28:47.988Z,40.76
2023-05-09T04:31:17.492Z,41.08
2023-05-09T04:33:47.764Z,40.99
2023-05-09T04:36:15.705Z,40.80
2023-05-09T04:38:42.829Z,41.26
2023-05-09T04:41:13.803Z,41.28
2023-05-09T04:43:40.715Z,41.52
2023-05-09T04:46:07.831Z,41.33
2023-05-09T04:48:36.118Z,41.24
2023-05-09T04:51:03.032Z,41.29
2023-05-09T04:53:29.978Z,41.31
2023-05-09T04:55:58.107Z,41.38
2023-05-09T04:58:26.534Z,41.20
2023-05-09T05:00:54.679Z,41.32
2023-05-09T05:03:22.318Z,41.06
2023-05-09T05:05:49.398Z,41.26
2023-05-09T05:08:16.405Z,41.33
2023-05-09T05:10:44.129Z,41.35
2023-05-09T05:13:13.666Z,41.34
2023-05-09T05:15:44.816Z,41.07
2023-05-09T05:18:12.771Z,41.12
2023-05-09T05:20:43.425Z,41.31
2023-05-09T05:23:10.930Z,41.25
2023-05-09T05:25:38.259Z,40.69
2023-05-09T05:28:05.786Z,40.66
2023-05-09T05:30:34.299Z,40.53
2023-05-09T05:33:02.469Z,40.72
2023-05-09T05:35:29.552Z,40.71
2023-05-09T05:37:57.555Z,40.43
2023-05-09T05:40:26.141Z,40.56
2023-05-09T05:42:54.545Z,40.72
2023-05-09T05:45:21.984Z,40.68
2023-05-09T05:47:52.697Z,40.53
2023-05-09T05:50:20.323Z,40.29
2023-05-09T05:52:47.412Z,40.54
2023-05-09T05:55:16.265Z,39.84
2023-05-09T05:57:43.408Z,40.01
2023-05-09T06:00:14.848Z,40.21
2023-05-09T06:02:47.894Z,40.19
2023-05-09T06:05:22.131Z,39.37
2023-05-09T06:07:50.433Z,38.89
2023-05-09T06:10:17.330Z,39.22
2023-05-09T06:12:45.614Z,38.76
2023-05-09T06:15:12.962Z,38.52
2023-05-09T06:17:43.859Z,38.09
2023-05-09T06:20:10.957Z,38.19
2023-05-09T06:22:38.353Z,38.37
2023-05-09T06:25:06.440Z,37.75
2023-05-09T06:27:35.043Z,37.65
2023-05-09T06:30:08.306Z,38.03
2023-05-09T06:32:41.407Z,37.42
2023-05-09T06:35:08.462Z,37.36
2023-05-09T06:37:35.364Z,37.30
2023-05-09T06:40:02.235Z,36.74
2023-05-09T06:42:30.034Z,36.88
2023-05-09T06:44:56.927Z,36.74
2023-05-09T06:47:23.887Z,36.75
2023-05-09T06:49:50.865Z,37.03
2023-05-09T06:52:17.705Z,35.84
2023-05-09T06:54:44.566Z,36.20
2023-05-09T06:57:11.484Z,35.85
2023-05-09T06:59:38.700Z,36.15
2023-05-09T07:02:05.751Z,36.00
2023-05-09T07:04:32.855Z,36.07
2023-05-09T07:07:00.787Z,34.92
2023-05-09T07:09:30.613Z,34.97
2023-05-09T07:11:57.478Z,34.87
2023-05-09T07:14:24.328Z,34.69
2023-05-09T07:16:51.252Z,34.84
2023-05-09T07:19:18.233Z,35.00
2023-05-09T07:21:45.265Z,34.60
2023-05-09T07:24:12.164Z,34.43
2023-05-09T07:26:39.083Z,34.35
2023-05-09T07:29:05.971Z,33.82
2023-05-09T07:31:35.128Z,34.54
2023-05-09T07:34:03.621Z,33.92
2023-05-09T07:36:30.519Z,33.19
2023-05-09T07:38:57.404Z,32.86
2023-05-09T07:41:24.308Z,32.73
2023-05-09T07:43:51.179Z,33.13
2023-05-09T07:46:18.169Z,33.15
2023-05-09T07:48:45.273Z,33.21
2023-05-09T07:51:12.190Z,33.52
2023-05-09T07:53:39.050Z,32.77
2023-05-09T07:56:06.787Z,33.01
2023-05-09T07:58:33.799Z,33.07
2023-05-09T08:01:00.683Z,32.08
2023-05-09T08:03:27.659Z,31.39
2023-05-09T08:05:56.138Z,31.99
2023-05-09T08:08:23.598Z,31.49
2023-05-09T08:10:50.545Z,31.96
2023-05-09T08:13:18.883Z,32.49
2023-05-09T08:15:45.811Z,32.78
2023-05-09T08:18:12.742Z,32.30
2023-05-09T08:20:39.712Z,31.58
2023-05-09T08:23:07.021Z,31.49
2023-05-09T08:25:33.994Z,31.74
2023-05-09T08:28:00.980Z,31.56
2023-05-09T08:30:29.327Z,31.88
2023-05-09T08:32:56.550Z,32.00
2023-05-09T08:35:24.705Z,32.36
2023-05-09T08:37:51.636Z,32.99
2023-05-09T08:40:18.674Z,33.20
2023-05-09T08:42:46.123Z,33.10
2023-05-09T08:45:15.073Z,33.84
2023-05-09T08:47:42.513Z,32.83
2023-05-09T08:50:11.647Z,33.09
2023-05-09T08:52:38.765Z,32.63
2023-05-09T08:55:06.238Z,32.75
2023-05-09T08:57:36.737Z,32.87
2023-05-09T09:00:06.872Z,33.51
2023-05-09T09:02:35.803Z,33.02
2023-05-09T09:05:02.949Z,32.20
2023-05-09T09:07:31.329Z,31.40
2023-05-09T09:09:58.965Z,31.80
2023-05-09T09:12:26.660Z,31.16
2023-05-09T09:14:55.940Z,32.03
2023-05-09T09:17:28.989Z,32.45
2023-05-09T09:20:02.538Z,32.45
2023-05-09T09:22:33.920Z,30.88
2023-05-09T09:25:01.998Z,30.58
2023-05-09T09:27:28.908Z,30.33
2023-05-09T09:30:06.578Z,29.94
2023-05-09T09:32:34.306Z,29.98
2023-05-09T09:35:06.983Z,30.39
2023-05-09T09:37:35.534Z,30.50
2023-05-09T09:40:04.039Z,30.28
2023-05-09T09:42:48.097Z,29.61
2023-05-09T09:45:20.022Z,29.93
2023-05-09T09:47:49.941Z,29.95
2023-05-09T09:50:23.352Z,28.53
2023-05-09T09:52:56.030Z,28.03
2023-05-09T09:55:24.537Z,28.27
2023-05-09T09:57:52.325Z,28.40
2023-05-09T10:00:26.054Z,28.67
2023-05-09T10:02:56.098Z,28.91
2023-05-09T10:05:31.323Z,28.23
2023-05-09T10:08:00.752Z,27.68
2023-05-09T10:10:30.749Z,27.69
2023-05-09T10:13:00.217Z,28.23
2023-05-09T10:15:41.370Z,28.89
2023-05-09T10:18:20.258Z,28.46
2023-05-09T10:20:47.490Z,27.44
2023-05-09T10:23:16.569Z,28.18
2023-05-09T10:25:49.287Z,28.34
2023-05-09T10:28:21.796Z,27.75
2023-05-09T10:31:06.504Z,27.64
2023-05-09T10:33:44.143Z,27.47
2023-05-09T10:36:12.149Z,26.86
2023-05-09T10:38:39.893Z,26.45
2023-05-09T10:41:07.312Z,27.06
2023-05-09T10:43:36.612Z,27.22
2023-05-09T10:46:05.226Z,27.59
2023-05-09T10:48:33.797Z,28.15
2023-05-09T10:51:03.061Z,28.46
2023-05-09T10:53:48.635Z,27.97
2023-05-09T10:56:33.719Z,28.03
2023-05-09T10:59:00.922Z,28.00
2023-05-09T11:01:38.846Z,26.87
2023-05-09T11:04:11.306Z,26.94
2023-05-09T11:06:55.789Z,26.62
2023-05-09T11:09:32.713Z,27.32
2023-05-09T11:12:05.372Z,26.58
2023-05-09T11:14:40.584Z,26.69
2023-05-09T11:17:10.879Z,26.53
2023-05-09T11:19:45.397Z,26.82
2023-05-09T11:22:16.160Z,26.87
2023-05-09T11:24:51.329Z,27.94
2023-05-09T11:27:24.605Z,28.23
2023-05-09T11:29:53.280Z,28.48
2023-05-09T11:32:22.416Z,28.81
2023-05-09T11:34:49.865Z,28.55
2023-05-09T11:37:18.304Z,28.22
2023-05-09T11:40:04.848Z,27.62
2023-05-09T11:42:32.470Z,26.93
2023-05-09T11:44:59.735Z,26.89
2023-05-09T11:47:28.921Z,26.91
2023-05-09T11:49:55.967Z,27.39
2023-05-09T11:52:22.821Z,27.39
2023-05-09T11:54:50.193Z,28.10
2023-05-09T11:57:17.901Z,27.56
2023-05-09T11:59:51.445Z,28.07
2023-05-09T12:02:19.221Z,27.26
2023-05-09T12:04:46.129Z,27.63
2023-05-09T12:07:13.216Z,27.42
2023-05-09T12:09:40.321Z,27.73
2023-05-09T12:12:14.321Z,27.59
2023-05-09T12:14:42.076Z,28.06
2023-05-09T12:17:09.508Z,27.93
2023-05-09T12:19:36.936Z,27.47
2023-05-09T12:22:06.665Z,27.96
2023-05-09T12:24:37.397Z,27.87
2023-05-09T12:27:05.182Z,27.57
2023-05-09T12:29:32.128Z,27.55
2023-05-09T12:32:00.236Z,27.05
2023-05-09T12:34:27.211Z,26.52
2023-05-09T12:36:54.080Z,26.79
2023-05-09T12:39:22.949Z,26.59
2023-05-09T12:42:01.024Z,26.25
2023-05-09T12:44:29.804Z,26.48
2023-05-09T12:47:02.856Z,27.07
2023-05-09T12:49:31.717Z,26.32
2023-05-09T12:52:02.997Z,26.72
2023-05-09T12:54:31.453Z,26.69
2023-05-09T12:56:58.851Z,26.91
2023-05-09T12:59:30.254Z,26.22
2023-05-09T13:01:59.704Z,26.01
2023-05-09T13:04:28.646Z,26.20
2023-05-09T13:06:57.995Z,26.09
2023-05-09T13:09:26.527Z,25.60
2023-05-09T13:11:54.488Z,25.64
2023-05-09T13:14:23.122Z,25.13
2023-05-09T13:16:50.078Z,25.77
2023-05-09T13:19:17.167Z,25.51
2023-05-09T13:21:44.056Z,25.32
2023-05-09T13:24:10.913Z,25.55
2023-05-09T13:26:37.782Z,25.20
2023-05-09T13:29:04.635Z,26.08
2023-05-09T13:31:31.864Z,25.85
2023-05-09T13:33:58.774Z,25.04
2023-05-09T13:36:25.654Z,25.65
2023-05-09T13:38:52.526Z,25.55
2023-05-09T13:41:23.668Z,25.75
2023-05-09T13:43:50.956Z,25.37
2023-05-09T13:46:17.856Z,25.46
2023-05-09T13:48:44.895Z,25.48
2023-05-09T13:51:11.786Z,25.10
2023-05-09T13:53:39.370Z,25.30
2023-05-09T13:56:09.443Z,25.63
2023-05-09T13:58:36.841Z,25.86
2023-05-09T14:01:03.864Z,25.71
2023-05-09T14:03:31.714Z,25.21
2023-05-09T14:05:59.701Z,25.31
2023-05-09T14:08:26.582Z,25.65
2023-05-09T14:10:53.521Z,25.45
2023-05-09T14:13:20.449Z,25.82
2023-05-09T14:15:47.440Z,25.48
2023-05-09T14:18:17.653Z,25.94
2023-05-09T14:20:46.157Z,25.69
2023-05-09T14:23:13.501Z,25.40
2023-05-09T14:25:40.441Z,25.53
2023-05-09T14:28:09.349Z,25.36
2023-05-09T14:30:36.780Z,25.82
2023-05-09T14:33:03.659Z,25.59
2023-05-09T14:35:32.851Z,25.95
2023-05-09T14:38:03.170Z,26.17
2023-05-09T14:40:31.885Z,25.89
2023-05-09T14:43:02.253Z,25.41
2023-05-09T14:45:30.301Z,25.98
2023-05-09T14:47:57.712Z,26.34
2023-05-09T14:50:24.655Z,26.17
2023-05-09T14:52:52.093Z,26.04
2023-05-09T14:55:19.406Z,25.94
2023-05-09T14:57:46.371Z,26.21
2023-05-09T15:00:21.445Z,25.61
2023-05-09T15:02:50.075Z,26.05
2023-05-09T15:05:17.616Z,25.32
2023-05-09T15:07:44.574Z,25.69
2023-05-09T15:10:11.626Z,25.67
2023-05-09T15:12:38.590Z,26.11
2023-05-09T15:15:17.886Z,26.65
2023-05-09T15:17:45.904Z,26.02
2023-05-09T15:20:18.175Z,26.64
2023-05-09T15:22:47.175Z,26.71
2023-05-09T15:25:14.723Z,26.92
2023-05-09T15:27:41.619Z,26.56
2023-05-09T15:30:10.056Z,26.63
2023-05-09T15:32:42.899Z,26.54
2023-05-09T15:35:10.330Z,26.65
2023-05-09T15:37:37.642Z,26.94
2023-05-09T15:40:05.285Z,26.53
2023-05-09T15:42:32.245Z,27.15
2023-05-09T15:44:59.188Z,26.51
2023-05-09T15:47:26.176Z,26.71
2023-05-09T15:49:53.441Z,26.84
2023-05-09T15:52:20.331Z,26.42
2023-05-09T15:54:47.313Z,26.18
2023-05-09T15:57:14.236Z,26.95
2023-05-09T15:59:41.287Z,26.45
2023-05-09T16:02:08.289Z,26.74
2023-05-09T16:04:35.216Z,26.53
2023-05-09T16:07:02.408Z,26.58
2023-05-09T16:09:29.435Z,26.52
2023-05-09T16:11:56.656Z,26.47
2023-05-09T16:14:23.823Z,26.57
2023-05-09T16:16:52.404Z,26.79
2023-05-09T16:19:19.284Z,26.90
2023-05-09T16:21:46.836Z,26.63
2023-05-09T16:24:13.788Z,26.58
2023-05-09T16:26:40.678Z,27.18
2023-05-09T16:29:07.568Z,26.78
2023-05-09T16:31:35.673Z,26.99
2023-05-09T16:34:02.975Z,26.99
2023-05-09T16:36:30.342Z,26.18
2023-05-09T16:38:57.544Z,26.03
2023-05-09T16:41:24.444Z,26.07
2023-05-09T16:43:51.722Z,26.06
2023-05-09T16:46:18.654Z,25.81
2023-05-09T16:48:45.589Z,26.01
2023-05-09T16:51:12.485Z,26.29
2023-05-09T16:53:39.367Z,26.31
2023-05-09T16:56:07.499Z,25.80
2023-05-09T16:58:36.132Z,25.38
2023-05-09T17:01:03.878Z,25.80
2023-05-09T17:03:30.841Z,25.27
2023-05-09T17:05:57.757Z,25.52
2023-05-09T17:08:24.661Z,25.56
2023-05-09T17:10:51.556Z,25.01
2023-05-09T17:13:18.895Z,24.73
2023-05-09T17:15:46.174Z,24.90
2023-05-09T17:18:17.043Z,24.68
2023-05-09T17:20:46.336Z,25.35
2023-05-09T17:23:13.204Z,25.12
2023-05-09T17:25:40.110Z,25.08
2023-05-09T17:28:07.645Z,25.85
2023-05-09T17:30:34.539Z,25.98
2023-05-09T17:33:02.153Z,26.27
2023-05-09T17:35:30.280Z,26.05
2023-05-09T17:37:57.222Z,26.00
2023-05-09T17:40:24.162Z,26.67
2023-05-09T17:42:51.188Z,26.51
2023-05-09T17:45:18.082Z,26.94
2023-05-09T17:47:45.017Z,27.24
2023-05-09T17:50:14.583Z,27.52
2023-05-09T17:52:41.641Z,27.42
2023-05-09T17:55:08.838Z,27.55
2023-05-09T17:57:35.979Z,27.67
2023-05-09T18:00:03.982Z,27.69
2023-05-09T18:02:40.890Z,28.04
2023-05-09T18:05:11.203Z,28.25
2023-05-09T18:07:40.315Z,28.37
2023-05-09T18:10:08.850Z,28.26
2023-05-09T18:12:37.404Z,28.32
2023-05-09T18:15:05.280Z,28.71
2023-05-09T18:17:32.203Z,28.74
2023-05-09T18:19:59.205Z,28.76
2023-05-09T18:22:26.090Z,29.04
2023-05-09T18:24:53.222Z,28.92
2023-05-09T18:27:20.224Z,29.47
2023-05-09T18:29:47.557Z,29.58
2023-05-09T18:32:14.624Z,29.20
2023-05-09T18:34:42.066Z,29.65
2023-05-09T18:37:10.389Z,29.69
2023-05-09T18:39:37.316Z,30.19
2023-05-09T18:42:06.256Z,30.27
2023-05-09T18:44:33.154Z,30.23
2023-05-09T18:47:00.081Z,30.40
2023-05-09T18:49:27.112Z,30.16
2023-05-09T18:51:54.037Z,30.34
2023-05-09T18:54:20.932Z,30.53
2023-05-09T18:56:47.808Z,30.70
2023-05-09T18:59:16.313Z,30.85
2023-05-09T19:01:44.038Z,30.99
2023-05-09T19:04:11.084Z,30.96
2023-05-09T19:06:38.164Z,30.95
2023-05-09T19:09:05.600Z,31.02
2023-05-09T19:11:32.488Z,31.24
2023-05-09T19:13:59.661Z,31.14
2023-05-09T19:16:26.786Z,31.75
2023-05-09T19:18:58.086Z,31.49
2023-05-09T19:21:25.546Z,31.67
2023-05-09T19:23:52.572Z,32.11
2023-05-09T19:26:21.655Z,32.10
2023-05-09T19:28:48.597Z,32.12
2023-05-09T19:31:16.233Z,32.21
2023-05-09T19:33:45.587Z,32.38
2023-05-09T19:36:12.923Z,32.64
2023-05-09T19:38:39.958Z,32.73
2023-05-09T19:41:06.901Z,32.31
2023-05-09T19:43:33.773Z,32.89
2023-05-09T19:46:00.707Z,32.97
2023-05-09T19:48:27.618Z,32.99
2023-05-09T19:51:00.469Z,33.33
2023-05-09T19:53:27.461Z,33.40
2023-05-09T19:55:54.366Z,33.37
2023-05-09T19:58:21.280Z,33.96
2023-05-09T20:00:48.738Z,33.84
2023-05-09T20:03:15.776Z,34.23
2023-05-09T20:05:42.751Z,34.26
2023-05-09T20:08:09.680Z,34.25
2023-05-09T20:10:36.634Z,34.67
2023-05-09T20:13:04.405Z,34.61
2023-05-09T20:15:31.397Z,34.45
2023-05-09T20:17:58.561Z,34.65
2023-05-09T20:20:25.530Z,34.89
2023-05-09T20:22:52.433Z,35.24
2023-05-09T20:25:19.648Z,34.83
2023-05-09T20:27:46.554Z,34.81
2023-05-09T20:30:13.891Z,35.52
2023-05-09T20:32:41.074Z,35.18
2023-05-09T20:35:08.394Z,35.70
2023-05-09T20:37:36.199Z,35.51
2023-05-09T20:40:06.461Z,35.70
2023-05-09T20:42:33.625Z,35.42
2023-05-09T20:45:00.506Z,35.93
2023-05-09T20:47:27.385Z,36.21
2023-05-09T20:49:55.484Z,35.98
2023-05-09T20:52:23.645Z,35.57
2023-05-09T20:54:50.569Z,35.53
2023-05-09T20:57:17.418Z,35.97
2023-05-09T20:59:44.301Z,36.25
2023-05-09T21:02:11.279Z,36.07
2023-05-09T21:04:38.332Z,36.16
2023-05-09T21:07:05.193Z,36.09
2023-05-09T21:09:32.068Z,36.64
2023-05-09T21:12:00.596Z,36.16
2023-05-09T21:14:27.715Z,36.67
2023-05-09T21:16:57.905Z,36.28
2023-05-09T21:19:25.175Z,36.55
2023-05-09T21:21:52.082Z,36.71
2023-05-09T21:24:18.975Z,37.03
2023-05-09T21:26:45.883Z,37.01
2023-05-09T21:29:12.788Z,37.06
2023-05-09T21:31:39.822Z,36.70
2023-05-09T21:34:09.985Z,36.76
2023-05-09T21:36:38.701Z,36.89
2023-05-09T21:39:09.644Z,37.05
2023-05-09T21:41:38.687Z,37.15
2023-05-09T21:44:07.410Z,36.74
2023-05-09T21:46:35.216Z,37.08
2023-05-09T21:49:02.229Z,37.05
2023-05-09T21:51:29.620Z,37.16
2023-05-09T21:53:56.484Z,37.07
2023-05-09T21:56:23.586Z,37.18
2023-05-09T21:58:50.862Z,37.19
2023-05-09T22:01:19.301Z,36.95
2023-05-09T22:03:46.356Z,37.55
2023-05-09T22:06:13.651Z,37.31
2023-05-09T22:08:41.007Z,37.45
2023-05-09T22:11:07.891Z,37.25
2023-05-09T22:13:36.332Z,37.40
2023-05-09T22:16:03.869Z,37.24
2023-05-09T22:18:31.518Z,37.31
2023-05-09T22:20:59.302Z,37.27
2023-05-09T22:23:26.308Z,37.48
2023-05-09T22:25:53.376Z,37.30
2023-05-09T22:28:20.387Z,37.54
2023-05-09T22:30:47.298Z,37.81
2023-05-09T22:33:14.246Z,37.75
2023-05-09T22:35:41.302Z,37.64
2023-05-09T22:38:08.185Z,37.46
2023-05-09T22:40:35.108Z,37.88
2023-05-09T22:43:02.012Z,37.67
2023-05-09T22:45:28.916Z,38.10
2023-05-09T22:47:55.799Z,37.73
2023-05-09T22:50:23.059Z,37.98
2023-05-09T22:52:49.934Z,37.94
2023-05-09T22:55:16.836Z,38.10
2023-05-09T22:57:43.708Z,37.94
2023-05-09T23:00:11.341Z,38.04
2023-05-09T23:02:38.365Z,37.99
2023-05-09T23:05:06.257Z,38.12
2023-05-09T23:07:33.128Z,37.94
2023-05-09T23:09:59.996Z,38.03
2023-05-09T23:12:27.114Z,38.33
2023-05-09T23:14:53.976Z,38.36
2023-05-09T23:17:21.265Z,38.53
2023-05-09T23:19:48.156Z,38.22
2023-05-09T23:22:15.818Z,38.46
2023-05-09T23:24:42.671Z,38.76
2023-05-09T23:27:09.590Z,38.77
2023-05-09T23:29:36.566Z,38.85
2023-05-09T23:32:03.560Z,38.62
2023-05-09T23:34:30.974Z,38.76
2023-05-09T23:36:57.841Z,38.85
2023-05-09T23:39:24.707Z,38.91
2023-05-09T23:41:51.571Z,38.86
2023-05-09T23:44:18.572Z,38.91
2023-05-09T23:46:45.522Z,38.91
2023-05-09T23:49:14.973Z,39.02
2023-05-09T23:51:41.869Z,39.25
2023-05-09T23:54:08.780Z,39.18
2023-05-09T23:56:35.724Z,39.17
2023-05-09T23:59:02.599Z,39.21
